sensor_id;sensor_type;location;lat;lon;timestamp;pressure;altitude;pressure_sealevel;temperature;humidity
30463;BME280;17256;43.618;25.336;2022-10-16T00:01:17;101456.75;;;8.49;100.00
30463;BME280;17256;43.618;25.336;2022-10-16T00:03:44;101316.00;;;7.75;100.00
30463;BME280;17256;43.618;25.336;2022-10-16T00:06:11;101377.34;;;8.15;100.00
30463;BME280;17256;43.618;25.336;2022-10-16T00:08:38;101285.09;;;7.49;100.00
30463;BME280;17256;43.618;25.336;2022-10-16T00:11:13;101264.59;;;7.45;100.00
30463;BME280;17256;43.618;25.336;2022-10-16T00:13:41;101078.72;;;6.26;100.00
30463;BME280;17256;43.618;25.336;2022-10-16T00:16:08;101178.50;;;6.81;100.00
30463;BME280;17256;43.618;25.336;2022-10-16T00:18:35;101544.72;;;8.96;100.00
30463;BME280;17256;43.618;25.336;2022-10-16T00:21:04;101124.75;;;6.29;100.00
30463;BME280;17256;43.618;25.336;2022-10-16T00:23:31;101453.78;;;8.42;100.00
30463;BME280;17256;43.618;25.336;2022-10-16T00:25:59;101394.03;;;7.95;100.00
30463;BME280;17256;43.618;25.336;2022-10-16T00:28:25;101279.50;;;7.24;100.00
30463;BME280;17256;43.618;25.336;2022-10-16T00:30:53;101432.63;;;8.18;100.00
30463;BME280;17256;43.618;25.336;2022-10-16T00:33:19;101400.53;;;7.94;100.00
30463;BME280;17256;43.618;25.336;2022-10-16T00:35:46;101396.53;;;7.89;100.00
30463;BME280;17256;43.618;25.336;2022-10-16T00:38:13;101313.47;;;7.22;100.00
30463;BME280;17256;43.618;25.336;2022-10-16T00:40:39;101299.53;;;7.07;100.00
30463;BME280;17256;43.618;25.336;2022-10-16T00:45:59;101293.41;;;7.13;100.00
30463;BME280;17256;43.618;25.336;2022-10-16T00:48:25;101274.19;;;6.97;100.00
30463;BME280;17256;43.618;25.336;2022-10-16T00:50:51;101306.16;;;7.04;100.00
30463;BME280;17256;43.618;25.336;2022-10-16T00:53:18;101201.50;;;6.52;100.00
30463;BME280;17256;43.618;25.336;2022-10-16T00:55:45;101402.97;;;7.71;100.00
30463;BME280;17256;43.618;25.336;2022-10-16T00:58:11;101593.13;;;8.87;100.00
30463;BME280;17256;43.618;25.336;2022-10-16T01:00:38;101169.31;;;6.38;100.00
30463;BME280;17256;43.618;25.336;2022-10-16T01:03:28;101084.59;;;5.78;100.00
30463;BME280;17256;43.618;25.336;2022-10-16T01:06:09;101428.44;;;7.72;100.00
30463;BME280;17256;43.618;25.336;2022-10-16T01:11:41;101119.34;;;5.76;100.00
30463;BME280;17256;43.618;25.336;2022-10-16T01:14:22;101624.69;;;8.66;100.00
30463;BME280;17256;43.618;25.336;2022-10-16T01:17:00;101363.19;;;7.25;100.00
30463;BME280;17256;43.618;25.336;2022-10-16T01:22:37;101197.41;;;6.30;100.00
30463;BME280;17256;43.618;25.336;2022-10-16T01:25:09;101438.75;;;7.60;100.00
30463;BME280;17256;43.618;25.336;2022-10-16T01:27:38;101340.50;;;6.89;100.00
30463;BME280;17256;43.618;25.336;2022-10-16T01:30:10;101611.13;;;8.56;100.00
30463;BME280;17256;43.618;25.336;2022-10-16T01:35:25;101614.03;;;8.54;100.00
30463;BME280;17256;43.618;25.336;2022-10-16T01:38:06;101381.13;;;7.10;100.00
30463;BME280;17256;43.618;25.336;2022-10-16T01:40:34;101595.16;;;8.25;100.00
30463;BME280;17256;43.618;25.336;2022-10-16T01:43:08;101561.94;;;8.20;100.00
30463;BME280;17256;43.618;25.336;2022-10-16T01:45:36;101331.34;;;6.72;100.00
30463;BME280;17256;43.618;25.336;2022-10-16T01:48:04;101576.69;;;8.27;100.00
30463;BME280;17256;43.618;25.336;2022-10-16T01:50:36;101582.81;;;8.21;100.00
30463;BME280;17256;43.618;25.336;2022-10-16T01:53:03;101431.31;;;7.27;100.00
30463;BME280;17256;43.618;25.336;2022-10-16T01:55:33;101152.63;;;5.52;100.00
30463;BME280;17256;43.618;25.336;2022-10-16T01:58:05;101374.84;;;6.74;100.00
30463;BME280;17256;43.618;25.336;2022-10-16T02:00:33;101419.47;;;7.00;100.00
30463;BME280;17256;43.618;25.336;2022-10-16T02:03:02;101258.19;;;6.05;100.00
30463;BME280;17256;43.618;25.336;2022-10-16T02:05:52;101617.81;;;8.18;100.00
30463;BME280;17256;43.618;25.336;2022-10-16T02:08:21;101131.28;;;5.20;100.00
30463;BME280;17256;43.618;25.336;2022-10-16T02:10:48;101288.72;;;6.08;100.00
30463;BME280;17256;43.618;25.336;2022-10-16T02:13:21;101432.97;;;7.02;100.00
30463;BME280;17256;43.618;25.336;2022-10-16T02:15:48;101236.22;;;5.79;100.00
30463;BME280;17256;43.618;25.336;2022-10-16T02:18:14;101355.81;;;6.46;100.00
30463;BME280;17256;43.618;25.336;2022-10-16T02:20:47;101403.59;;;6.68;100.00
30463;BME280;17256;43.618;25.336;2022-10-16T02:23:24;101657.94;;;8.09;100.00
30463;BME280;17256;43.618;25.336;2022-10-16T02:25:53;101542.72;;;7.51;100.00
30463;BME280;17256;43.618;25.336;2022-10-16T02:28:26;101478.63;;;7.09;100.00
30463;BME280;17256;43.618;25.336;2022-10-16T02:30:58;101326.97;;;6.16;100.00
30463;BME280;17256;43.618;25.336;2022-10-16T02:33:26;101235.00;;;5.64;100.00
30463;BME280;17256;43.618;25.336;2022-10-16T02:35:53;101319.25;;;6.12;100.00
30463;BME280;17256;43.618;25.336;2022-10-16T02:38:20;101480.56;;;6.99;100.00
30463;BME280;17256;43.618;25.336;2022-10-16T02:40:47;101382.78;;;6.50;100.00
30463;BME280;17256;43.618;25.336;2022-10-16T02:43:13;101228.94;;;5.42;100.00
30463;BME280;17256;43.618;25.336;2022-10-16T02:45:39;101398.03;;;6.42;100.00
30463;BME280;17256;43.618;25.336;2022-10-16T02:48:06;101446.94;;;6.81;100.00
30463;BME280;17256;43.618;25.336;2022-10-16T02:50:32;101362.47;;;6.34;100.00
30463;BME280;17256;43.618;25.336;2022-10-16T02:52:57;101548.41;;;7.39;100.00
30463;BME280;17256;43.618;25.336;2022-10-16T02:55:25;101333.38;;;6.07;100.00
30463;BME280;17256;43.618;25.336;2022-10-16T02:57:51;101436.78;;;6.73;100.00
30463;BME280;17256;43.618;25.336;2022-10-16T03:00:18;101386.09;;;6.43;100.00
30463;BME280;17256;43.618;25.336;2022-10-16T03:02:44;101564.50;;;7.43;100.00
30463;BME280;17256;43.618;25.336;2022-10-16T03:05:10;101221.63;;;5.43;100.00
30463;BME280;17256;43.618;25.336;2022-10-16T03:07:36;101396.59;;;6.48;100.00
30463;BME280;17256;43.618;25.336;2022-10-16T03:10:02;101395.66;;;6.57;100.00
30463;BME280;17256;43.618;25.336;2022-10-16T03:12:28;101265.09;;;5.72;100.00
30463;BME280;17256;43.618;25.336;2022-10-16T03:15:04;101543.50;;;7.25;100.00
30463;BME280;17256;43.618;25.336;2022-10-16T03:17:31;101460.41;;;6.83;100.00
30463;BME280;17256;43.618;25.336;2022-10-16T03:19:57;101282.78;;;5.85;100.00
30463;BME280;17256;43.618;25.336;2022-10-16T03:22:23;101211.91;;;5.40;100.00
30463;BME280;17256;43.618;25.336;2022-10-16T03:24:49;101611.69;;;7.80;100.00
30463;BME280;17256;43.618;25.336;2022-10-16T03:27:15;101402.03;;;6.48;100.00
30463;BME280;17256;43.618;25.336;2022-10-16T03:29:42;101389.06;;;6.32;100.00
30463;BME280;17256;43.618;25.336;2022-10-16T03:32:08;101408.66;;;6.45;100.00
30463;BME280;17256;43.618;25.336;2022-10-16T03:34:35;101478.00;;;6.98;100.00
30463;BME280;17256;43.618;25.336;2022-10-16T03:37:02;101474.78;;;6.85;100.00
30463;BME280;17256;43.618;25.336;2022-10-16T03:39:28;101448.72;;;6.72;100.00
30463;BME280;17256;43.618;25.336;2022-10-16T03:41:54;101398.03;;;6.42;100.00
30463;BME280;17256;43.618;25.336;2022-10-16T03:44:20;101409.06;;;6.51;100.00
30463;BME280;17256;43.618;25.336;2022-10-16T03:46:46;101353.81;;;6.21;100.00
30463;BME280;17256;43.618;25.336;2022-10-16T03:49:12;101316.63;;;5.93;100.00
30463;BME280;17256;43.618;25.336;2022-10-16T03:51:37;101471.66;;;6.79;100.00
30463;BME280;17256;43.618;25.336;2022-10-16T03:54:03;101407.06;;;6.43;100.00
30463;BME280;17256;43.618;25.336;2022-10-16T03:56:29;101652.72;;;7.80;100.00
30463;BME280;17256;43.618;25.336;2022-10-16T03:58:55;101422.88;;;6.22;100.00
30463;BME280;17256;43.618;25.336;2022-10-16T04:01:20;101432.56;;;6.34;100.00
30463;BME280;17256;43.618;25.336;2022-10-16T04:03:49;101690.16;;;7.80;100.00
30463;BME280;17256;43.618;25.336;2022-10-16T04:06:15;101348.59;;;5.63;100.00
30463;BME280;17256;43.618;25.336;2022-10-16T04:08:42;101463.28;;;6.36;100.00
30463;BME280;17256;43.618;25.336;2022-10-16T04:11:08;101404.47;;;5.96;100.00
30463;BME280;17256;43.618;25.336;2022-10-16T04:13:34;101335.91;;;5.44;100.00
30463;BME280;17256;43.618;25.336;2022-10-16T04:16:01;101494.28;;;6.35;100.00
30463;BME280;17256;43.618;25.336;2022-10-16T04:18:26;101481.44;;;6.17;100.00
30463;BME280;17256;43.618;25.336;2022-10-16T04:20:53;101616.75;;;6.94;100.00
30463;BME280;17256;43.618;25.336;2022-10-16T04:23:19;101506.44;;;6.23;100.00
30463;BME280;17256;43.618;25.336;2022-10-16T04:25:45;101542.06;;;6.48;100.00
30463;BME280;17256;43.618;25.336;2022-10-16T04:28:11;101233.97;;;4.53;100.00
30463;BME280;17256;43.618;25.336;2022-10-16T04:30:40;101261.53;;;4.87;100.00
30463;BME280;17256;43.618;25.336;2022-10-16T04:33:06;101411.84;;;5.67;100.00
30463;BME280;17256;43.618;25.336;2022-10-16T04:35:31;101418.91;;;5.60;100.00
30463;BME280;17256;43.618;25.336;2022-10-16T04:37:58;101430.91;;;5.76;100.00
30463;BME280;17256;43.618;25.336;2022-10-16T04:40:24;101581.50;;;6.64;100.00
30463;BME280;17256;43.618;25.336;2022-10-16T04:42:50;101491.94;;;6.12;100.00
30463;BME280;17256;43.618;25.336;2022-10-16T04:45:15;101669.19;;;7.25;100.00
30463;BME280;17256;43.618;25.336;2022-10-16T04:47:41;101270.88;;;4.75;100.00
30463;BME280;17256;43.618;25.336;2022-10-16T04:50:13;101484.66;;;6.03;100.00
30463;BME280;17256;43.618;25.336;2022-10-16T04:52:39;101555.34;;;6.34;100.00
30463;BME280;17256;43.618;25.336;2022-10-16T04:55:05;101530.97;;;6.23;100.00
30463;BME280;17256;43.618;25.336;2022-10-16T04:57:31;101347.56;;;5.17;100.00
30463;BME280;17256;43.618;25.336;2022-10-16T04:59:56;101462.31;;;5.90;100.00
30463;BME280;17256;43.618;25.336;2022-10-16T05:02:31;101416.69;;;5.82;100.00
30463;BME280;17256;43.618;25.336;2022-10-16T05:04:57;101575.16;;;7.18;100.00
30463;BME280;17256;43.618;25.336;2022-10-16T05:07:23;101577.06;;;7.35;100.00
30463;BME280;17256;43.618;25.336;2022-10-16T05:09:48;101436.91;;;6.54;100.00
30463;BME280;17256;43.618;25.336;2022-10-16T05:12:14;101609.59;;;7.56;100.00
30463;BME280;17256;43.618;25.336;2022-10-16T05:14:40;101464.75;;;6.58;100.00
30463;BME280;17256;43.618;25.336;2022-10-16T05:17:05;101553.31;;;7.00;100.00
30463;BME280;17256;43.618;25.336;2022-10-16T05:19:31;101466.84;;;6.46;100.00
30463;BME280;17256;43.618;25.336;2022-10-16T05:21:57;101723.31;;;7.94;100.00
30463;BME280;17256;43.618;25.336;2022-10-16T05:24:23;101563.91;;;7.03;100.00
30463;BME280;17256;43.618;25.336;2022-10-16T05:26:49;101557.19;;;6.98;100.00
30463;BME280;17256;43.618;25.336;2022-10-16T05:29:15;101775.63;;;8.27;100.00
30463;BME280;17256;43.618;25.336;2022-10-16T05:31:41;101421.56;;;6.26;100.00
30463;BME280;17256;43.618;25.336;2022-10-16T05:34:06;101527.47;;;6.95;100.00
30463;BME280;17256;43.618;25.336;2022-10-16T05:36:32;101687.41;;;7.80;100.00
30463;BME280;17256;43.618;25.336;2022-10-16T05:38:59;101583.25;;;7.20;100.00
30463;BME280;17256;43.618;25.336;2022-10-16T05:41:24;101791.72;;;8.30;100.00
30463;BME280;17256;43.618;25.336;2022-10-16T05:43:52;101693.59;;;7.82;100.00
30463;BME280;17256;43.618;25.336;2022-10-16T05:46:18;101596.13;;;7.27;100.00
30463;BME280;17256;43.618;25.336;2022-10-16T05:48:44;101606.75;;;7.30;100.00
30463;BME280;17256;43.618;25.336;2022-10-16T05:51:13;101600.34;;;7.39;100.00
30463;BME280;17256;43.618;25.336;2022-10-16T05:53:39;101597.56;;;7.49;100.00
30463;BME280;17256;43.618;25.336;2022-10-16T05:56:07;101788.94;;;8.57;100.00
30463;BME280;17256;43.618;25.336;2022-10-16T05:58:35;101608.34;;;7.51;100.00
30463;BME280;17256;43.618;25.336;2022-10-16T06:01:07;101793.88;;;8.72;100.00
30463;BME280;17256;43.618;25.336;2022-10-16T06:03:35;101627.25;;;7.44;100.00
30463;BME280;17256;43.618;25.336;2022-10-16T06:06:16;101672.34;;;7.76;100.00
30463;BME280;17256;43.618;25.336;2022-10-16T06:08:42;101738.41;;;8.34;100.00
30463;BME280;17256;43.618;25.336;2022-10-16T06:11:12;101598.81;;;7.72;100.00
30463;BME280;17256;43.618;25.336;2022-10-16T06:13:39;101561.78;;;7.60;100.00
30463;BME280;17256;43.618;25.336;2022-10-16T06:16:07;101681.56;;;8.46;100.00
30463;BME280;17256;43.618;25.336;2022-10-16T06:18:33;101757.56;;;8.70;100.00
30463;BME280;17256;43.618;25.336;2022-10-16T06:20:58;101614.06;;;7.75;100.00
30463;BME280;17256;43.618;25.336;2022-10-16T06:23:25;101736.69;;;8.69;100.00
30463;BME280;17256;43.618;25.336;2022-10-16T06:25:52;101670.06;;;8.24;100.00
30463;BME280;17256;43.618;25.336;2022-10-16T06:28:18;101648.09;;;8.34;100.00
30463;BME280;17256;43.618;25.336;2022-10-16T06:30:44;101675.66;;;8.58;100.00
30463;BME280;17256;43.618;25.336;2022-10-16T06:33:11;101847.38;;;9.87;100.00
30463;BME280;17256;43.618;25.336;2022-10-16T06:35:36;101776.06;;;9.53;100.00
30463;BME280;17256;43.618;25.336;2022-10-16T06:38:02;101851.06;;;10.04;100.00
30463;BME280;17256;43.618;25.336;2022-10-16T06:40:28;101804.97;;;9.74;100.00
30463;BME280;17256;43.618;25.336;2022-10-16T06:42:55;101685.63;;;9.19;100.00
30463;BME280;17256;43.618;25.336;2022-10-16T06:45:20;101755.03;;;9.28;100.00
30463;BME280;17256;43.618;25.336;2022-10-16T06:47:47;101682.50;;;8.88;100.00
30463;BME280;17256;43.618;25.336;2022-10-16T06:50:12;101727.75;;;9.18;100.00
30463;BME280;17256;43.618;25.336;2022-10-16T06:52:38;101760.50;;;9.62;100.00
30463;BME280;17256;43.618;25.336;2022-10-16T06:55:04;101616.47;;;8.66;100.00
30463;BME280;17256;43.618;25.336;2022-10-16T06:57:31;101833.28;;;9.82;100.00
30463;BME280;17256;43.618;25.336;2022-10-16T06:59:57;101712.88;;;9.29;100.00
30463;BME280;17256;43.618;25.336;2022-10-16T07:02:23;101680.19;;;9.36;100.00
30463;BME280;17256;43.618;25.336;2022-10-16T07:04:52;101893.31;;;10.54;100.00
30463;BME280;17256;43.618;25.336;2022-10-16T07:07:18;101698.28;;;9.20;100.00
30463;BME280;17256;43.618;25.336;2022-10-16T07:09:43;101886.59;;;10.48;100.00
30463;BME280;17256;43.618;25.336;2022-10-16T07:12:09;101653.63;;;9.36;100.00
30463;BME280;17256;43.618;25.336;2022-10-16T07:14:35;101741.81;;;9.66;100.00
30463;BME280;17256;43.618;25.336;2022-10-16T07:17:02;101733.19;;;9.44;100.00
30463;BME280;17256;43.618;25.336;2022-10-16T07:19:27;101862.38;;;10.43;100.00
30463;BME280;17256;43.618;25.336;2022-10-16T07:21:53;101620.13;;;9.16;100.00
30463;BME280;17256;43.618;25.336;2022-10-16T07:24:20;101659.22;;;9.69;100.00
30463;BME280;17256;43.618;25.336;2022-10-16T07:26:46;101724.38;;;10.50;100.00
30463;BME280;17256;43.618;25.336;2022-10-16T07:29:14;101747.53;;;10.63;100.00
30463;BME280;17256;43.618;25.336;2022-10-16T07:31:41;101708.06;;;10.56;100.00
30463;BME280;17256;43.618;25.336;2022-10-16T07:34:08;101818.31;;;10.69;100.00
30463;BME280;17256;43.618;25.336;2022-10-16T07:36:33;101693.41;;;10.15;100.00
30463;BME280;17256;43.618;25.336;2022-10-16T07:39:00;101705.66;;;10.29;100.00
30463;BME280;17256;43.618;25.336;2022-10-16T07:41:25;101855.22;;;11.07;100.00
30463;BME280;17256;43.618;25.336;2022-10-16T07:43:52;101875.50;;;11.15;100.00
30463;BME280;17256;43.618;25.336;2022-10-16T07:46:20;101652.41;;;10.05;100.00
30463;BME280;17256;43.618;25.336;2022-10-16T07:48:46;101762.66;;;10.75;100.00
30463;BME280;17256;43.618;25.336;2022-10-16T07:51:21;101641.66;;;10.28;100.00
30463;BME280;17256;43.618;25.336;2022-10-16T07:53:47;101813.38;;;11.61;100.00
30463;BME280;17256;43.618;25.336;2022-10-16T07:56:14;101801.25;;;11.86;100.00
30463;BME280;17256;43.618;25.336;2022-10-16T07:58:40;101815.78;;;12.11;100.00
30463;BME280;17256;43.618;25.336;2022-10-16T08:01:09;101900.75;;;12.84;100.00
30463;BME280;17256;43.618;25.336;2022-10-16T08:03:35;101780.13;;;12.63;100.00
30463;BME280;17256;43.618;25.336;2022-10-16T08:06:02;101904.28;;;13.24;100.00
30463;BME280;17256;43.618;25.336;2022-10-16T08:08:28;101725.91;;;11.87;100.00
30463;BME280;17256;43.618;25.336;2022-10-16T08:10:54;101772.94;;;12.40;100.00
30463;BME280;17256;43.618;25.336;2022-10-16T08:13:20;101918.09;;;13.24;100.00
30463;BME280;17256;43.618;25.336;2022-10-16T08:15:46;101693.09;;;12.31;100.00
30463;BME280;17256;43.618;25.336;2022-10-16T08:18:13;101831.75;;;13.53;100.00
30463;BME280;17256;43.618;25.336;2022-10-16T08:20:40;101893.84;;;14.01;100.00
30463;BME280;17256;43.618;25.336;2022-10-16T08:23:06;101615.25;;;12.52;100.00
30463;BME280;17256;43.618;25.336;2022-10-16T08:25:35;101718.06;;;13.05;100.00
30463;BME280;17256;43.618;25.336;2022-10-16T08:28:06;101765.31;;;13.25;100.00
30463;BME280;17256;43.618;25.336;2022-10-16T08:30:32;101691.69;;;12.88;100.00
30463;BME280;17256;43.618;25.336;2022-10-16T08:32:58;101823.28;;;13.54;100.00
30463;BME280;17256;43.618;25.336;2022-10-16T08:35:24;101772.66;;;13.47;100.00
30463;BME280;17256;43.618;25.336;2022-10-16T08:37:50;101869.22;;;14.36;100.00
30463;BME280;17256;43.618;25.336;2022-10-16T08:40:36;101657.31;;;13.28;100.00
30463;BME280;17256;43.618;25.336;2022-10-16T08:48:48;101775.44;;;14.49;100.00
30463;BME280;17256;43.618;25.336;2022-10-16T08:51:28;101919.19;;;15.49;100.00
30463;BME280;17256;43.618;25.336;2022-10-16T08:54:02;101868.50;;;15.49;100.00
30463;BME280;17256;43.618;25.336;2022-10-16T08:56:32;101812.72;;;15.52;100.00
30463;BME280;17256;43.618;25.336;2022-10-16T08:58:59;101564.31;;;14.29;97.82
30463;BME280;17256;43.618;25.336;2022-10-16T09:01:37;101561.53;;;14.50;96.30
30463;BME280;17256;43.618;25.336;2022-10-16T09:06:52;101513.56;;;14.08;95.45
30463;BME280;17256;43.618;25.336;2022-10-16T09:12:22;101861.72;;;16.61;91.68
30463;BME280;17256;43.618;25.336;2022-10-16T09:17:59;101765.16;;;16.17;90.62
30463;BME280;17256;43.618;25.336;2022-10-16T09:20:34;101897.31;;;17.45;84.16
30463;BME280;17256;43.618;25.336;2022-10-16T09:25:49;101827.66;;;17.14;81.80
30463;BME280;17256;43.618;25.336;2022-10-16T09:28:17;101741.59;;;16.61;80.33
30463;BME280;17256;43.618;25.336;2022-10-16T09:30:44;101491.00;;;15.08;79.17
30463;BME280;17256;43.618;25.336;2022-10-16T09:33:13;101471.59;;;14.89;78.05
30463;BME280;17256;43.618;25.336;2022-10-16T09:35:44;101655.50;;;15.95;77.46
30463;BME280;17256;43.618;25.336;2022-10-16T09:38:32;101860.34;;;17.18;78.57
30463;BME280;17256;43.618;25.336;2022-10-16T09:41:00;101584.28;;;15.62;79.60
30463;BME280;17256;43.618;25.336;2022-10-16T09:44:03;101536.91;;;15.37;77.40
30463;BME280;17256;43.618;25.336;2022-10-16T09:46:32;101531.28;;;15.18;78.63
30463;BME280;17256;43.618;25.336;2022-10-16T09:49:03;101715.81;;;16.67;77.06
30463;BME280;17256;43.618;25.336;2022-10-16T09:51:33;101879.78;;;17.71;73.64
30463;BME280;17256;43.618;25.336;2022-10-16T09:56:35;101809.03;;;17.87;70.13
30463;BME280;17256;43.618;25.336;2022-10-16T09:59:15;101614.41;;;16.84;67.57
30463;BME280;17256;43.618;25.336;2022-10-16T10:01:53;101879.53;;;18.64;63.62
30463;BME280;17256;43.618;25.336;2022-10-16T10:04:20;101781.31;;;18.19;64.78
30463;BME280;17256;43.618;25.336;2022-10-16T10:06:50;101632.19;;;17.35;63.16
30463;BME280;17256;43.618;25.336;2022-10-16T10:09:31;101711.13;;;17.85;63.41
30463;BME280;17256;43.618;25.336;2022-10-16T10:12:02;101739.94;;;17.91;64.18
30463;BME280;17256;43.618;25.336;2022-10-16T10:14:38;101714.03;;;17.39;63.14
30463;BME280;17256;43.618;25.336;2022-10-16T10:19:52;101459.44;;;16.04;63.72
30463;BME280;17256;43.618;25.336;2022-10-16T10:22:38;101716.16;;;17.37;63.42
30463;BME280;17256;43.618;25.336;2022-10-16T10:30:22;101876.63;;;18.32;64.00
30463;BME280;17256;43.618;25.336;2022-10-16T10:46:35;101538.13;;;17.07;57.35
30463;BME280;17256;43.618;25.336;2022-10-16T10:57:09;101834.88;;;19.15;57.58
30463;BME280;17256;43.618;25.336;2022-10-16T11:07:34;101833.03;;;18.71;58.52
30463;BME280;17256;43.618;25.336;2022-10-16T11:10:13;101696.47;;;17.51;58.65
30463;BME280;17256;43.618;25.336;2022-10-16T11:12:43;101758.94;;;18.00;58.91
30463;BME280;17256;43.618;25.336;2022-10-16T11:15:14;101608.66;;;17.50;58.34
30463;BME280;17256;43.618;25.336;2022-10-16T11:20:23;101686.03;;;18.30;57.30
30463;BME280;17256;43.618;25.336;2022-10-16T11:25:53;101651.84;;;17.40;57.65
30463;BME280;17256;43.618;25.336;2022-10-16T11:28:33;101544.13;;;17.10;58.91
30463;BME280;17256;43.618;25.336;2022-10-16T11:31:09;101699.31;;;18.34;58.58
30463;BME280;17256;43.618;25.336;2022-10-16T11:33:51;101824.19;;;19.12;57.03
30463;BME280;17256;43.618;25.336;2022-10-16T11:38:53;101814.84;;;19.00;57.43
30463;BME280;17256;43.618;25.336;2022-10-16T11:43:56;101649.88;;;18.36;55.97
30463;BME280;17256;43.618;25.336;2022-10-16T11:46:30;101578.72;;;17.97;56.44
30463;BME280;17256;43.618;25.336;2022-10-16T11:49:20;101822.56;;;19.54;55.90
30463;BME280;17256;43.618;25.336;2022-10-16T11:51:55;101817.81;;;19.30;56.16
30463;BME280;17256;43.618;25.336;2022-10-16T11:55:01;101494.78;;;17.50;55.37
30463;BME280;17256;43.618;25.336;2022-10-16T11:57:51;101728.72;;;19.05;55.40
30463;BME280;17256;43.618;25.336;2022-10-16T12:00:33;101645.41;;;18.60;54.91
30463;BME280;17256;43.618;25.336;2022-10-16T12:03:25;101810.44;;;19.67;54.66
30463;BME280;17256;43.618;25.336;2022-10-16T12:08:46;101585.75;;;18.00;54.48
30463;BME280;17256;43.618;25.336;2022-10-16T12:16:38;101722.59;;;18.96;55.21
30463;BME280;17256;43.618;25.336;2022-10-16T12:19:16;101662.63;;;18.75;55.75
30463;BME280;17256;43.618;25.336;2022-10-16T12:21:44;101514.31;;;17.75;54.33
30463;BME280;17256;43.618;25.336;2022-10-16T12:26:58;101820.38;;;19.31;54.90
30463;BME280;17256;43.618;25.336;2022-10-16T12:32:05;101457.06;;;16.98;54.78
30463;BME280;17256;43.618;25.336;2022-10-16T12:34:47;101568.78;;;17.76;54.54
30463;BME280;17256;43.618;25.336;2022-10-16T12:39:46;101622.94;;;17.99;56.34
30463;BME280;17256;43.618;25.336;2022-10-16T12:44:55;101585.50;;;18.01;55.59
30463;BME280;17256;43.618;25.336;2022-10-16T12:49:57;101560.28;;;17.71;56.66
30463;BME280;17256;43.618;25.336;2022-10-16T12:54:56;101513.47;;;17.30;56.11
30463;BME280;17256;43.618;25.336;2022-10-16T13:00:26;101680.75;;;18.22;56.61
30463;BME280;17256;43.618;25.336;2022-10-16T13:05:55;101684.97;;;18.31;56.01
30463;BME280;17256;43.618;25.336;2022-10-16T13:08:52;101812.88;;;19.07;55.82
30463;BME280;17256;43.618;25.336;2022-10-16T13:17:09;101830.13;;;18.91;56.20
30463;BME280;17256;43.618;25.336;2022-10-16T13:19:50;101829.13;;;18.85;56.71
30463;BME280;17256;43.618;25.336;2022-10-16T13:30:19;101700.63;;;17.87;56.50
30463;BME280;17256;43.618;25.336;2022-10-16T13:32:48;101711.31;;;17.83;56.23
30463;BME280;17256;43.618;25.336;2022-10-16T13:35:26;101407.66;;;16.04;57.59
30463;BME280;17256;43.618;25.336;2022-10-16T13:38:04;101567.25;;;16.84;56.58
30463;BME280;17256;43.618;25.336;2022-10-16T13:40:30;101571.31;;;16.88;57.16
30463;BME280;17256;43.618;25.336;2022-10-16T13:42:59;101660.19;;;17.33;57.01
30463;BME280;17256;43.618;25.336;2022-10-16T13:45:26;101845.81;;;18.34;57.76
30463;BME280;17256;43.618;25.336;2022-10-16T13:48:02;101708.66;;;17.44;57.44
30463;BME280;17256;43.618;25.336;2022-10-16T13:50:29;101586.72;;;16.71;56.94
30463;BME280;17256;43.618;25.336;2022-10-16T13:53:06;101509.09;;;16.25;57.80
30463;BME280;17256;43.618;25.336;2022-10-16T13:55:33;101757.31;;;17.66;57.91
30463;BME280;17256;43.618;25.336;2022-10-16T13:58:10;101714.25;;;17.37;58.28
30463;BME280;17256;43.618;25.336;2022-10-16T14:00:37;101691.00;;;17.18;58.53
30463;BME280;17256;43.618;25.336;2022-10-16T14:03:06;101673.97;;;16.82;58.51
30463;BME280;17256;43.618;25.336;2022-10-16T14:05:33;101419.13;;;15.35;58.76
30463;BME280;17256;43.618;25.336;2022-10-16T14:07:59;101628.72;;;16.75;58.47
30463;BME280;17256;43.618;25.336;2022-10-16T14:10:28;101862.41;;;18.02;58.06
30463;BME280;17256;43.618;25.336;2022-10-16T14:12:57;101641.28;;;16.57;58.32
30463;BME280;17256;43.618;25.336;2022-10-16T14:15:24;101831.91;;;17.63;58.94
30463;BME280;17256;43.618;25.336;2022-10-16T14:17:50;101768.50;;;17.27;59.66
30463;BME280;17256;43.618;25.336;2022-10-16T14:20:18;101829.75;;;17.58;59.85
30463;BME280;17256;43.618;25.336;2022-10-16T14:22:44;101777.28;;;17.17;60.42
30463;BME280;17256;43.618;25.336;2022-10-16T14:30:55;101720.25;;;16.61;60.27
30463;BME280;17256;43.618;25.336;2022-10-16T14:33:32;101810.56;;;17.04;60.80
30463;BME280;17256;43.618;25.336;2022-10-16T14:36:20;101645.06;;;15.97;62.03
30463;BME280;17256;43.618;25.336;2022-10-16T14:41:22;101697.78;;;16.23;62.86
30463;BME280;17256;43.618;25.336;2022-10-16T14:43:54;101872.31;;;17.19;63.62
30463;BME280;17256;43.618;25.336;2022-10-16T14:46:27;101664.69;;;15.95;63.04
30463;BME280;17256;43.618;25.336;2022-10-16T14:49:26;101544.00;;;15.05;64.39
30463;BME280;17256;43.618;25.336;2022-10-16T14:51:53;101468.31;;;14.72;62.73
30463;BME280;17256;43.618;25.336;2022-10-16T14:54:20;101673.38;;;15.86;63.19
30463;BME280;17256;43.618;25.336;2022-10-16T14:56:54;101775.41;;;16.30;64.28
30463;BME280;17256;43.618;25.336;2022-10-16T15:02:30;101627.94;;;15.26;65.14
30463;BME280;17256;43.618;25.336;2022-10-16T15:04:55;101708.47;;;15.65;66.42